M I D A S
Marine Information and Data Acquisition System
Tripno 408 of the Zeeleeuw from 2002-11-29 08:36:27 to 2002-11-29 12:55:31
Back to CruiseResearch ActivitiesStationsMapUnderway DataData graphs

EquipmentUnitsComment
TimeDGPSUTC
LatitudeDGPSDM.mWGS84
LongitudeDGPSDM.mWGS84
TemperatureSBE03/SBE38deg celciusITS90
ConductivitySBE21S/mITS90
SalinitySBE21 Practical Salinity Units
ChlorophylAChelsea fluorimeterg/lCalibrated in Aceton
Missing or incorrect values are displayed as -999
Sea surface data collected by the RV Zeeleeuw from 2002-11-29 08:36:27 to 2002-11-29 12:55:31
                                                                                    Next 1000 lines
Time Latitude Longitude Temperature Conductivity Salinity ChlorophylA
2002-11-29 08:36:36 51°13.591 2°56.119 16.145116 0.069341 0.356024  
2002-11-29 08:36:40 51°13.592 2°56.116 16.141651 0.069341 0.356024  
2002-11-29 08:36:46 51°13.594 2°56.112 16.151062 0.069237 0.355479  
2002-11-29 08:36:51 51°13.595 2°56.108 16.151148 0.069237 0.355484  
2002-11-29 08:36:56 51°13.596 2°56.103 16.151148 0.069237 0.355484  
2002-11-29 08:37:00 51°13.597 2°56.1 16.148453 0.069237 0.355484  
2002-11-29 08:37:06 51°13.599 2°56.094 16.147341 0.069237 0.355484  
2002-11-29 08:37:11 51°13.6 2°56.089 16.14533 0.069237 0.355489  
2002-11-29 08:37:16 51°13.602 2°56.083 16.148838 0.069341 0.356034  
2002-11-29 08:37:21 51°13.603 2°56.078 16.134806 0.069341 0.356034  
2002-11-29 08:37:26 51°13.604 2°56.073 16.134806 0.069341 0.356034  
2002-11-29 08:37:31 51°13.605 2°56.069 16.117989 0.069341 0.356045  
2002-11-29 08:37:36 51°13.606 2°56.064 16.128687 0.069237 0.355495  
2002-11-29 08:37:40 51°13.607 2°56.061 16.13134 0.069341 0.356045  
2002-11-29 08:37:46 51°13.608 2°56.056 16.11448 0.069237 0.355495  
2002-11-29 08:37:51 51°13.608 2°56.053 16.114009 0.069341 0.356045  
2002-11-29 08:37:55 51°13.609 2°56.051 16.114009 0.069341 0.356045  
2002-11-29 08:38:00 51°13.609 2°56.049 16.114865 0.069341 0.356045  
2002-11-29 08:38:05 51°13.61 2°56.047 16.112939 0.069341 0.356055  
2002-11-29 08:38:10 51°13.61 2°56.046 16.139127 0.069237 0.355505  
2002-11-29 08:38:16 51°13.611 2°56.044 16.133565 0.069237 0.3555  
2002-11-29 08:38:20 51°13.611 2°56.042 16.155254 0.069237 0.355505  
2002-11-29 08:38:24 51°13.612 2°56.039 16.155254 0.069237 0.355505  
2002-11-29 08:38:30 51°13.613 2°56.036 16.134078 0.069341 0.356066  
2002-11-29 08:38:35 51°13.614 2°56.031 16.150164 0.069237 0.355516  
2002-11-29 08:38:40 51°13.615 2°56.027 16.144346 0.069237 0.355516  
2002-11-29 08:38:46 51°13.616 2°56.022 16.13964 0.069237 0.355521  
2002-11-29 08:38:51 51°13.617 2°56.017 16.148239 0.069237 0.355521  
2002-11-29 08:38:56 51°13.619 2°56.013 16.148239 0.069237 0.355521  
2002-11-29 08:39:00 51°13.62 2°56.008 16.143191 0.069237 0.355526  
2002-11-29 08:39:07 51°13.624 2°56.001 16.148367 0.069237 0.355531  
2002-11-29 08:39:11 51°13.625 2°55.996 16.1461 0.069237 0.355531  
2002-11-29 08:39:16 51°13.628 2°55.991 16.147255 0.069237 0.355526  
2002-11-29 08:39:21 51°13.63 2°55.985 16.147939 0.069341 0.356081  
2002-11-29 08:39:27 51°13.633 2°55.978 16.147939 0.069341 0.356081  
2002-11-29 08:39:31 51°13.635 2°55.973 16.143105 0.069237 0.355537  
2002-11-29 08:39:36 51°13.637 2°55.967 16.145544 0.069237 0.355537  
2002-11-29 08:39:41 51°13.64 2°55.961 16.143277 0.069237 0.355542  
2002-11-29 08:39:46 51°13.643 2°55.955 16.146314 0.069237 0.355542  
2002-11-29 08:39:51 51°13.646 2°55.948 16.147939 0.069237 0.355542  
2002-11-29 08:39:56 51°13.649 2°55.942 16.147939 0.069237 0.355542  
2002-11-29 08:40:01 51°13.653 2°55.935 16.149822 0.069237 0.355542  
2002-11-29 08:40:07 51°13.656 2°55.927 16.151362 0.069237 0.355547  
2002-11-29 08:40:11 51°13.658 2°55.922 16.150848 0.069237 0.355547  
2002-11-29 08:40:16 51°13.661 2°55.916 16.151276 0.069237 0.355542  
2002-11-29 08:40:20 51°13.664 2°55.91 16.151362 0.069237 0.355547  
2002-11-29 08:40:26 51°13.667 2°55.902 16.151362 0.069237 0.355547  
2002-11-29 08:40:31 51°13.67 2°55.895 16.156409 0.069237 0.355552  
2002-11-29 08:40:36 51°13.673 2°55.887 16.156238 0.069237 0.355552  
2002-11-29 08:40:40 51°13.675 2°55.882 16.155724 0.069237 0.355552  
2002-11-29 08:40:46 51°13.678 2°55.873 16.157692 0.069237 0.355558  
2002-11-29 08:40:51 51°13.681 2°55.865 16.15427 0.069237 0.355558  
2002-11-29 08:40:56 51°13.683 2°55.858 16.15427 0.069237 0.355558  
2002-11-29 08:41:01 51°13.686 2°55.85 16.155297 0.069237 0.355563  
2002-11-29 08:41:06 51°13.688 2°55.843 16.15658 0.069237 0.355558  
2002-11-29 08:41:11 51°13.69 2°55.835 16.15705 0.069237 0.355568  
2002-11-29 08:41:16 51°13.693 2°55.827 16.154313 0.069237 0.355568  
2002-11-29 08:41:20 51°13.694 2°55.82 16.155511 0.069237 0.355568  
2002-11-29 08:41:26 51°13.697 2°55.811 16.155511 0.069237 0.355568  
2002-11-29 08:41:31 51°13.699 2°55.803 16.156109 0.069237 0.355568  
2002-11-29 08:41:36 51°13.7 2°55.796 16.15226 0.069237 0.355568  
2002-11-29 08:41:41 51°13.702 2°55.788 16.155211 0.069237 0.355573  
2002-11-29 08:41:46 51°13.704 2°55.782 16.155767 0.069237 0.355573  
2002-11-29 08:41:51 51°13.705 2°55.776 16.158291 0.069237 0.355579  
2002-11-29 08:41:55 51°13.706 2°55.772 16.158291 0.069237 0.355579  
2002-11-29 08:42:00 51°13.707 2°55.767 16.157948 0.069237 0.355579  
2002-11-29 08:42:04 51°13.708 2°55.764 16.158547 0.069237 0.355584  
2002-11-29 08:42:10 51°13.708 2°55.761 16.144089 0.069237 0.355584  
2002-11-29 08:42:15 51°13.709 2°55.759 16.15427 0.069237 0.355589  
2002-11-29 08:42:20 51°13.709 2°55.758 16.157221 0.069237 0.355584  
2002-11-29 08:42:26 51°13.71 2°55.757 16.157221 0.069237 0.355584  
2002-11-29 08:42:30 51°13.71 2°55.758 16.155682 0.069237 0.355589  
2002-11-29 08:42:35 51°13.711 2°55.759 16.159574 0.069237 0.355589  
2002-11-29 08:42:40 51°13.711 2°55.76 16.15226 0.069237 0.355594  
2002-11-29 08:42:44 51°13.712 2°55.762 16.154698 0.069237 0.3556  
2002-11-29 08:42:50 51°13.713 2°55.764 16.157606 0.069237 0.355605  
2002-11-29 08:42:55 51°13.714 2°55.766 16.157606 0.069237 0.355605  
2002-11-29 08:43:00 51°13.714 2°55.767 16.174798 0.069237 0.3556  
2002-11-29 08:43:05 51°13.715 2°55.768 16.178817 0.069237 0.35561  
2002-11-29 08:43:10 51°13.716 2°55.769 16.173173 0.069237 0.355605  
2002-11-29 08:43:15 51°13.716 2°55.769 16.207673 0.069237 0.355605  
2002-11-29 08:43:20 51°13.716 2°55.769 16.171976 0.069237 0.35561  
2002-11-29 08:43:26 51°13.716 2°55.767 16.171976 0.069237 0.35561  
2002-11-29 08:43:30 51°13.715 2°55.766 16.174499 0.069237 0.35561  
2002-11-29 08:43:35 51°13.714 2°55.764 16.175568 0.069237 0.355605  
2002-11-29 08:43:40 51°13.713 2°55.762 16.177193 0.069237 0.35561  
2002-11-29 08:43:45 51°13.713 2°55.76 16.178433 0.069237 0.355616  
2002-11-29 08:43:51 51°13.711 2°55.756 16.17561 0.069237 0.355616  
2002-11-29 08:43:56 51°13.71 2°55.753 16.17561 0.069237 0.355616  
2002-11-29 08:44:01 51°13.71 2°55.751 16.177107 0.069237 0.355621  
2002-11-29 08:44:07 51°13.708 2°55.747 16.17591 0.069237 0.355621  
2002-11-29 08:44:11 51°13.708 2°55.745 16.174969 0.069237 0.355621  
2002-11-29 08:44:16 51°13.707 2°55.743 16.179031 0.069237 0.355621  
2002-11-29 08:44:21 51°13.706 2°55.74 16.175995 0.069237 0.355626  
2002-11-29 08:44:26 51°13.705 2°55.738 16.175995 0.069237 0.355626  
2002-11-29 08:44:30 51°13.704 2°55.736 16.178732 0.069237 0.355637  
2002-11-29 08:44:35 51°13.704 2°55.734 16.178903 0.069237 0.355637  
2002-11-29 08:44:40 51°13.703 2°55.733 16.176508 0.069237 0.355642  
2002-11-29 08:44:45 51°13.703 2°55.731 16.177022 0.069237 0.355647  
2002-11-29 08:44:50 51°13.702 2°55.73 16.177278 0.069237 0.355647  
2002-11-29 08:44:56 51°13.701 2°55.729 16.177278 0.069237 0.355647  
2002-11-29 08:45:00 51°13.701 2°55.728 16.177919 0.069237 0.355647  
2002-11-29 08:45:05 51°13.701 2°55.727 16.178005 0.069237 0.355652  
2002-11-29 08:45:10 51°13.701 2°55.727 16.179886 0.069237 0.355652  
2002-11-29 08:45:15 51°13.701 2°55.727 16.178817 0.069237 0.355658  
2002-11-29 08:45:20 51°13.701 2°55.727 16.174884 0.069237 0.355658  
2002-11-29 08:45:26 51°13.701 2°55.727 16.174884 0.069237 0.355658  
2002-11-29 08:45:30 51°13.702 2°55.727 16.176594 0.069237 0.355663  
2002-11-29 08:45:36 51°13.702 2°55.727 16.175482 0.069237 0.355663  
2002-11-29 08:45:40 51°13.703 2°55.728 16.175995 0.069237 0.355658  
2002-11-29 08:45:44 51°13.704 2°55.728 16.161926 0.069237 0.355673  
2002-11-29 08:45:50 51°13.705 2°55.728 16.158162 0.069237 0.355663  
2002-11-29 08:45:56 51°13.707 2°55.729 16.158162 0.069237 0.355663  
2002-11-29 08:46:00 51°13.709 2°55.729 16.149266 0.069237 0.355668  
2002-11-29 08:46:04 51°13.711 2°55.729 16.145373 0.069237 0.355673  
2002-11-29 08:46:09 51°13.713 2°55.729 16.144432 0.069237 0.355679  
2002-11-29 08:46:16 51°13.717 2°55.728 16.136132 0.069237 0.355684  
2002-11-29 08:46:20 51°13.719 2°55.727 16.144132 0.069237 0.355684  
2002-11-29 08:46:24 51°13.722 2°55.725 16.144132 0.069237 0.355684  
2002-11-29 08:46:30 51°13.726 2°55.722 16.146014 0.069237 0.355684  
2002-11-29 08:46:35 51°13.73 2°55.72 16.157179 0.069237 0.355684  
2002-11-29 08:46:40 51°13.734 2°55.717 16.175055 0.069237 0.355684  
2002-11-29 08:46:46 51°13.739 2°55.713 16.176295 0.069237 0.355679  
2002-11-29 08:46:50 51°13.743 2°55.71 16.174969 0.069237 0.355684  
2002-11-29 08:46:55 51°13.747 2°55.706 16.174969 0.069237 0.355684  
2002-11-29 08:47:00 51°13.752 2°55.702 16.175568 0.069237 0.355679  
2002-11-29 08:47:05 51°13.757 2°55.698 16.176679 0.069237 0.355684  
2002-11-29 08:47:10 51°13.762 2°55.694 16.178433 0.069237 0.355684  
2002-11-29 08:47:16 51°13.769 2°55.688 16.179801 0.069237 0.355684  
2002-11-29 08:47:20 51°13.774 2°55.684 16.17963 0.069237 0.355684  
2002-11-29 08:47:25 51°13.78 2°55.679 16.17963 0.069237 0.355684  
2002-11-29 08:47:30 51°13.786 2°55.674 16.184547 0.069237 0.355694  
2002-11-29 08:47:36 51°13.795 2°55.667 16.182665 0.069237 0.3557  
2002-11-29 08:47:40 51°13.8 2°55.662 16.184589 0.069237 0.355705  
2002-11-29 08:47:45 51°13.808 2°55.656 16.19626 0.069237 0.35571  
2002-11-29 08:47:50 51°13.815 2°55.65 16.190318 0.069237 0.3557  
2002-11-29 08:47:55 51°13.823 2°55.644 16.190318 0.069237 0.3557  
2002-11-29 08:48:00 51°13.83 2°55.638 16.191643 0.069237 0.35571  
2002-11-29 08:48:06 51°13.84 2°55.631 16.196388 0.069237 0.35571  
2002-11-29 08:48:11 51°13.848 2°55.625 16.192242 0.069237 0.355721  
2002-11-29 08:48:15 51°13.855 2°55.62 16.197585 0.069237 0.355726  
2002-11-29 08:48:20 51°13.863 2°55.614 16.199295 0.069237 0.355731  
2002-11-29 08:48:24 51°13.87 2°55.609 16.199295 0.069237 0.355731  
2002-11-29 08:48:30 51°13.881 2°55.602 16.201689 0.069237 0.355731  
2002-11-29 08:48:35 51°13.89 2°55.596 16.206946 0.069237 0.355736  
2002-11-29 08:48:40 51°13.899 2°55.59 16.203698 0.069237 0.355736  
2002-11-29 08:48:44 51°13.906 2°55.585 16.203441 0.069237 0.355736  
2002-11-29 08:48:50 51°13.917 2°55.578 16.203142 0.069237 0.355736  
2002-11-29 08:48:56 51°13.928 2°55.571 16.203142 0.069237 0.355736  
2002-11-29 08:49:00 51°13.935 2°55.565 16.202202 0.069237 0.355742  
2002-11-29 08:49:06 51°13.946 2°55.558 16.206861 0.069237 0.355747  
2002-11-29 08:49:11 51°13.956 2°55.551 16.205023 0.069237 0.355747  
2002-11-29 08:49:16 51°13.965 2°55.545 16.209681 0.069237 0.355747  
2002-11-29 08:49:19 51°13.971 2°55.542 16.214724 0.069237 0.355752  
2002-11-29 08:49:25 51°13.983 2°55.535 16.214724 0.069237 0.355752  
2002-11-29 08:49:30 51°13.992 2°55.528 16.214425 0.069237 0.355752  
2002-11-29 08:49:35 51°14.002 2°55.522 16.209895 0.069237 0.355752  
2002-11-29 08:49:40 51°14.012 2°55.516 16.20998 0.069237 0.355758  
2002-11-29 08:49:46 51°14.024 2°55.509 16.209852 0.069237 0.355763  
2002-11-29 08:49:51 51°14.034 2°55.504 16.219724 0.069237 0.355758  
2002-11-29 08:49:55 51°14.042 2°55.499 16.219724 0.069237 0.355758  
2002-11-29 08:50:00 51°14.051 2°55.493 16.205365 0.069237 0.355763  
2002-11-29 08:50:05 51°14.061 2°55.487 16.210408 0.069237 0.355768  
2002-11-29 08:50:10 51°14.071 2°55.481 16.215835 0.069237 0.355768  
2002-11-29 08:50:16 51°14.083 2°55.473 16.21481 0.069237 0.355768  
2002-11-29 08:50:20 51°14.092 2°55.468 16.221262 0.069237 0.355773  
2002-11-29 08:50:25 51°14.102 2°55.462 16.221262 0.069237 0.355773  
2002-11-29 08:50:31 51°14.114 2°55.454 16.217972 0.069237 0.355773  
2002-11-29 08:50:35 51°14.122 2°55.448 16.202843 0.069237 0.355779  
2002-11-29 08:50:40 51°14.132 2°55.44 16.205664 0.069237 0.355784  
2002-11-29 08:50:45 51°14.142 2°55.432 16.209852 0.069237 0.355784  
2002-11-29 08:50:50 51°14.152 2°55.423 16.213143 0.069237 0.355784  
2002-11-29 08:50:55 51°14.161 2°55.414 16.213143 0.069237 0.355784  
2002-11-29 08:51:00 51°14.171 2°55.404 16.214382 0.069237 0.355789  
2002-11-29 08:51:06 51°14.182 2°55.392 16.215023 0.069237 0.355784  
2002-11-29 08:51:10 51°14.189 2°55.384 16.216904 0.069237 0.355789  
2002-11-29 08:51:16 51°14.2 2°55.371 16.210963 0.069237 0.355789  
2002-11-29 08:51:20 51°14.208 2°55.361 16.182965 0.069237 0.355794  
2002-11-29 08:51:25 51°14.217 2°55.349 16.182965 0.069237 0.355794  
2002-11-29 08:51:30 51°14.226 2°55.335 16.194037 0.069237 0.355794  
2002-11-29 08:51:36 51°14.237 2°55.317 16.208271 0.069237 0.3558  
2002-11-29 08:51:40 51°14.244 2°55.305 16.210151 0.069237 0.3558  
2002-11-29 08:51:45 51°14.252 2°55.29 16.226475 0.069237 0.355794  
2002-11-29 08:51:50 51°14.261 2°55.274 16.222672 0.069237 0.3558  
2002-11-29 08:51:56 51°14.271 2°55.254 16.222672 0.069237 0.3558  
2002-11-29 08:52:00 51°14.278 2°55.24 16.220066 0.069237 0.355805  
2002-11-29 08:52:05 51°14.286 2°55.222 16.221177 0.069237 0.355805  
2002-11-29 08:52:10 51°14.294 2°55.205 16.227116 0.069237 0.355805  
2002-11-29 08:52:15 51°14.302 2°55.188 16.221262 0.069237 0.35581  
2002-11-29 08:52:20 51°14.311 2°55.17 16.219553 0.069237 0.35581  
2002-11-29 08:52:25 51°14.32 2°55.153 16.219553 0.069237 0.35581  
2002-11-29 08:52:30 51°14.328 2°55.136 16.222715 0.069237 0.355815  
2002-11-29 08:52:35 51°14.336 2°55.118 16.222801 0.069237 0.355821  
2002-11-29 08:52:40 51°14.345 2°55.1 16.222373 0.069237 0.355815  
2002-11-29 08:52:46 51°14.355 2°55.079 16.219895 0.069237 0.355826  
2002-11-29 08:52:51 51°14.364 2°55.06 16.22169 0.069237 0.355826  
2002-11-29 08:52:56 51°14.372 2°55.041 16.22169 0.069237 0.355826  
2002-11-29 08:53:00 51°14.379 2°55.025 16.199808 0.069237 0.355836  
2002-11-29 08:53:06 51°14.387 2°54.999 16.189933 0.069237 0.355836  
2002-11-29 08:53:10 51°14.393 2°54.981 16.17467 0.069237 0.355836  
2002-11-29 08:53:16 51°14.4 2°54.953 16.201133 0.069237 0.355842  
2002-11-29 08:53:20 51°14.404 2°54.933 16.214724 0.069237 0.355842  
2002-11-29 08:53:25 51°14.409 2°54.909 16.214724 0.069237 0.355842  
2002-11-29 08:53:30 51°14.413 2°54.884 16.209382 0.069237 0.355842  
2002-11-29 08:53:36 51°14.416 2°54.854 16.191643 0.069237 0.355847  
2002-11-29 08:53:40 51°14.417 2°54.834 16.185273 0.069237 0.355852  
2002-11-29 08:53:45 51°14.418 2°54.809 16.201603 0.069237 0.355852  
2002-11-29 08:53:50 51°14.419 2°54.783 16.210792 0.069237 0.355852  
2002-11-29 08:53:56 51°14.42 2°54.753 16.210792 0.069237 0.355852  
2002-11-29 08:54:00 51°14.42 2°54.732 16.201304 0.069237 0.355847  
2002-11-29 08:54:04 51°14.42 2°54.712 16.196559 0.069237 0.355852  
2002-11-29 08:54:10 51°14.419 2°54.681 16.195747 0.069237 0.355858  
2002-11-29 08:54:16 51°14.419 2°54.651 16.193738 0.069237 0.355847  
2002-11-29 08:54:20 51°14.418 2°54.63 16.18972 0.069237 0.355852  
2002-11-29 08:54:24 51°14.418 2°54.609 16.18972 0.069237 0.355852  
2002-11-29 08:54:31 51°14.418 2°54.573 16.193567 0.069237 0.355858  
2002-11-29 08:54:35 51°14.417 2°54.552 16.190788 0.069237 0.355868  
2002-11-29 08:54:40 51°14.415 2°54.527 16.191729 0.069237 0.355868  
2002-11-29 08:54:46 51°14.413 2°54.496 16.17561 0.069237 0.355873  
2002-11-29 08:54:50 51°14.411 2°54.476 16.18771 0.069237 0.355879  
2002-11-29 08:54:56 51°14.407 2°54.446 16.18771 0.069237 0.355879  
2002-11-29 08:55:00 51°14.404 2°54.426 16.182366 0.069237 0.355884  
2002-11-29 08:55:04 51°14.4 2°54.407 16.188266 0.069237 0.355884  
2002-11-29 08:55:10 51°14.395 2°54.378 16.187368 0.069237 0.355879  
2002-11-29 08:55:15 51°14.39 2°54.353 16.189121 0.069237 0.355879  
2002-11-29 08:55:20 51°14.385 2°54.329 16.192242 0.069237 0.355879  
2002-11-29 08:55:26 51°14.379 2°54.3 16.192242 0.069237 0.355879  
2002-11-29 08:55:30 51°14.375 2°54.281 16.187881 0.069237 0.355873  
2002-11-29 08:55:35 51°14.369 2°54.257 16.184675 0.069237 0.355884  
2002-11-29 08:55:40 51°14.363 2°54.234 16.181639 0.069237 0.355884  
2002-11-29 08:55:46 51°14.354 2°54.207 16.180613 0.069237 0.3559  
2002-11-29 08:55:50 51°14.348 2°54.189 16.183649 0.069237 0.3559  
2002-11-29 08:55:55 51°14.34 2°54.166 16.183649 0.069237 0.3559  
2002-11-29 08:56:00 51°14.332 2°54.144 16.178133 0.069237 0.3559  
2002-11-29 08:56:05 51°14.325 2°54.121 16.177193 0.069237 0.3559  
2002-11-29 08:56:10 51°14.317 2°54.098 16.182665 0.069237 0.3559  
2002-11-29 08:56:15 51°14.309 2°54.075 16.184076 0.069237 0.355894  
2002-11-29 08:56:20 51°14.302 2°54.051 16.179844 0.069237 0.355894  
2002-11-29 08:56:26 51°14.292 2°54.023 16.179844 0.069237 0.355894  
2002-11-29 08:56:30 51°14.286 2°54.003 16.178219 0.069237 0.3559  
2002-11-29 08:56:35 51°14.279 2°53.98 16.180912 0.069237 0.35591  
2002-11-29 08:56:40 51°14.271 2°53.956 16.180912 0.069237 0.355905  
2002-11-29 08:56:45 51°14.264 2°53.932 16.179801 0.069237 0.355915  
2002-11-29 08:56:50 51°14.256 2°53.908 16.180955 0.069237 0.355915  
2002-11-29 08:56:55 51°14.248 2°53.883 16.180955 0.069237 0.355915  
2002-11-29 08:57:00 51°14.24 2°53.858 16.180656 0.069237 0.355921  
2002-11-29 08:57:06 51°14.23 2°53.828 16.180912 0.069237 0.355921  
2002-11-29 08:57:10 51°14.224 2°53.808 16.182537 0.069237 0.355926  
2002-11-29 08:57:15 51°14.216 2°53.783 16.182965 0.069237 0.355921  
2002-11-29 08:57:20 51°14.208 2°53.757 16.179202 0.069237 0.355926  
2002-11-29 08:57:24 51°14.202 2°53.737 16.179202 0.069237 0.355926  
2002-11-29 08:57:30 51°14.192 2°53.707 16.17933 0.069237 0.355926  
2002-11-29 08:57:35 51°14.184 2°53.681 16.181639 0.069237 0.355937  
2002-11-29 08:57:40 51°14.176 2°53.656 16.180143 0.069237 0.355937  
2002-11-29 08:57:45 51°14.168 2°53.631 16.182067 0.069237 0.355937  
2002-11-29 08:57:50 51°14.16 2°53.605 16.182409 0.069237 0.355942  
2002-11-29 08:57:55 51°14.152 2°53.58 16.182409 0.069237 0.355942  
2002-11-29 08:58:00 51°14.144 2°53.554 16.178903 0.069237 0.355947  
2002-11-29 08:58:06 51°14.134 2°53.524 16.182836 0.069237 0.355942  
2002-11-29 08:58:10 51°14.127 2°53.503 16.178775 0.069133 0.355396  
2002-11-29 08:58:15 51°14.119 2°53.478 16.178133 0.069237 0.355947  
2002-11-29 08:58:20 51°14.111 2°53.453 16.175354 0.069237 0.355947  
2002-11-29 08:58:24 51°14.105 2°53.432 16.175354 0.069237 0.355947  
2002-11-29 08:58:30 51°14.095 2°53.401 16.175268 0.069237 0.355952  
2002-11-29 08:58:35 51°14.087 2°53.376 16.178817 0.069237 0.355958  
2002-11-29 08:58:40 51°14.079 2°53.351 16.177107 0.069237 0.355958  
2002-11-29 08:58:45 51°14.071 2°53.325 16.178433 0.069133 0.355412  
2002-11-29 08:58:50 51°14.063 2°53.3 16.179544 0.069237 0.355963  
2002-11-29 08:58:55 51°14.055 2°53.274 16.179544 0.069237 0.355963  
2002-11-29 08:59:00 51°14.047 2°53.249 16.180228 0.069237 0.355963  
2002-11-29 08:59:04 51°14.041 2°53.228 16.181254 0.069133 0.355428  
2002-11-29 08:59:10 51°14.031 2°53.198 16.182366 0.069237 0.355968  
2002-11-29 08:59:15 51°14.023 2°53.173 16.181041 0.069133 0.355423  
2002-11-29 08:59:20 51°14.015 2°53.147 16.183863 0.069237 0.355973  
2002-11-29 08:59:26 51°14.005 2°53.117 16.183863 0.069237 0.355973  
2002-11-29 08:59:31 51°13.997 2°53.091 16.179501 0.069237 0.355979  
2002-11-29 08:59:35 51°13.991 2°53.071 16.173045 0.069237 0.355979  
2002-11-29 08:59:40 51°13.983 2°53.045 16.181639 0.069133 0.355439  
2002-11-29 08:59:45 51°13.975 2°53.02 16.180741 0.069133 0.355439  
2002-11-29 08:59:50 51°13.967 2°52.994 16.181554 0.069133 0.355439  
2002-11-29 08:59:55 51°13.959 2°52.969 16.181554 0.069133 0.355439  
2002-11-29 09:00:00 51°13.95 2°52.943 16.181126 0.069237 0.355995  
2002-11-29 09:00:05 51°13.942 2°52.918 16.181212 0.069237 0.355995  
2002-11-29 09:00:08 51°13.938 2°52.902 16.180528 0.069133 0.355444  
2002-11-29 09:00:15 51°13.926 2°52.866 16.173943 0.069237 0.356  
2002-11-29 09:00:20 51°13.918 2°52.841 16.180442 0.069133 0.355454  
2002-11-29 09:00:26 51°13.909 2°52.811 16.180442 0.069133 0.355454  
2002-11-29 09:00:30 51°13.902 2°52.79 16.180656 0.069133 0.355454  
2002-11-29 09:00:35 51°13.894 2°52.764 16.182751 0.069133 0.35546  
2002-11-29 09:00:40 51°13.886 2°52.739 16.180613 0.069133 0.355465  
2002-11-29 09:00:44 51°13.88 2°52.718 16.181212 0.069133 0.355465  
2002-11-29 09:00:50 51°13.869 2°52.688 16.182409 0.069237 0.356021  
2002-11-29 09:00:56 51°13.859 2°52.658 16.182409 0.069237 0.356021  
2002-11-29 09:01:00 51°13.852 2°52.638 16.184034 0.069237 0.356021  
2002-11-29 09:01:06 51°13.842 2°52.608 16.180143 0.069133 0.355475  
2002-11-29 09:01:10 51°13.836 2°52.588 16.183948 0.069133 0.355475  
2002-11-29 09:01:15 51°13.827 2°52.563 16.185273 0.069133 0.355481  
2002-11-29 09:01:20 51°13.819 2°52.537 16.183734 0.069133 0.355486  
2002-11-29 09:01:26 51°13.809 2°52.507 16.183734 0.069133 0.355486  
2002-11-29 09:01:31 51°13.8 2°52.482 16.185744 0.069133 0.355481  
2002-11-29 09:01:35 51°13.794 2°52.462 16.186086 0.069237 0.356037  
2002-11-29 09:01:40 51°13.785 2°52.437 16.187796 0.069133 0.355486  
2002-11-29 09:01:46 51°13.774 2°52.407 16.186684 0.069133 0.355496  
2002-11-29 09:01:50 51°13.768 2°52.387 16.184333 0.069133 0.355491  
2002-11-29 09:01:56 51°13.758 2°52.356 16.184333 0.069133 0.355491  
2002-11-29 09:02:00 51°13.752 2°52.336 16.182152 0.069133 0.355502  
2002-11-29 09:02:04 51°13.745 2°52.316 16.186855 0.069133 0.355502  
2002-11-29 09:02:10 51°13.735 2°52.286 16.184547 0.069133 0.355502  
2002-11-29 09:02:15 51°13.727 2°52.261 16.187967 0.069133 0.355507  
2002-11-29 09:02:20 51°13.719 2°52.235 16.188907 0.069133 0.355512  
2002-11-29 09:02:24 51°13.712 2°52.215 16.188907 0.069133 0.355512  
2002-11-29 09:02:31 51°13.7 2°52.18 16.186471 0.069133 0.355512  
2002-11-29 09:02:36 51°13.692 2°52.155 16.181853 0.069133 0.355517  
2002-11-29 09:02:40 51°13.685 2°52.135 16.189506 0.069133 0.355523  
2002-11-29 09:02:46 51°13.675 2°52.104 16.179501 0.069133 0.355523  
2002-11-29 09:02:50 51°13.668 2°52.084 16.183264 0.069133 0.355528  
2002-11-29 09:02:56 51°13.658 2°52.054 16.183264 0.069133 0.355528  
2002-11-29 09:03:00 51°13.651 2°52.034 16.18848 0.069133 0.355528  
2002-11-29 09:03:06 51°13.641 2°52.003 16.189891 0.069133 0.355533  
2002-11-29 09:03:10 51°13.635 2°51.983 16.188907 0.069133 0.355539  
2002-11-29 09:03:15 51°13.626 2°51.958 16.190703 0.069133 0.355539  
2002-11-29 09:03:20 51°13.618 2°51.933 16.190831 0.069133 0.355544  
2002-11-29 09:03:24 51°13.611 2°51.913 16.190831 0.069133 0.355544  
2002-11-29 09:03:31 51°13.599 2°51.878 16.189378 0.069133 0.355544  
2002-11-29 09:03:36 51°13.591 2°51.853 16.191045 0.069133 0.355549  
2002-11-29 09:03:40 51°13.585 2°51.833 16.189378 0.069133 0.355549  
2002-11-29 09:03:46 51°13.575 2°51.802 16.189121 0.069133 0.355549  
2002-11-29 09:03:50 51°13.568 2°51.782 16.193866 0.069133 0.355554  
2002-11-29 09:03:56 51°13.558 2°51.752 16.193866 0.069133 0.355554  
2002-11-29 09:04:00 51°13.551 2°51.732 16.19455 0.069133 0.35556  
2002-11-29 09:04:04 51°13.544 2°51.712 16.186471 0.069133 0.355565  
2002-11-29 09:04:10 51°13.534 2°51.682 16.194721 0.069133 0.35557  
2002-11-29 09:04:16 51°13.524 2°51.652 16.18848 0.069133 0.355565  
2002-11-29 09:04:20 51°13.517 2°51.632 16.194123 0.069133 0.355581  
2002-11-29 09:04:26 51°13.507 2°51.601 16.194123 0.069133 0.355581  
2002-11-29 09:04:30 51°13.5 2°51.581 16.178903 0.069133 0.355575  
2002-11-29 09:04:35 51°13.492 2°51.555 16.191643 0.069133 0.355586  
2002-11-29 09:04:40 51°13.484 2°51.53 16.186684 0.069133 0.355586  
2002-11-29 09:04:46 51°13.473 2°51.5 16.182751 0.069133 0.355586  
2002-11-29 09:04:50 51°13.467 2°51.48 16.189933 0.069133 0.355586  
2002-11-29 09:04:55 51°13.458 2°51.455 16.189933 0.069133 0.355586  
2002-11-29 09:05:00 51°13.45 2°51.43 16.182323 0.069133 0.355596  
2002-11-29 09:05:04 51°13.443 2°51.41 16.18801 0.069133 0.355596  
2002-11-29 09:05:10 51°13.433 2°51.379 16.186299 0.069133 0.355596  
2002-11-29 09:05:15 51°13.425 2°51.354 16.189891 0.069133 0.355602  
2002-11-29 09:05:20 51°13.416 2°51.329 16.190104 0.069133 0.355596  
2002-11-29 09:05:26 51°13.406 2°51.299 16.190104 0.069133 0.355596  
2002-11-29 09:05:30 51°13.4 2°51.279 16.191601 0.069133 0.355607  
2002-11-29 09:05:35 51°13.391 2°51.253 16.195063 0.069133 0.355612  
2002-11-29 09:05:40 51°13.383 2°51.228 16.191002 0.069133 0.355612  
2002-11-29 09:05:46 51°13.372 2°51.198 16.194465 0.069133 0.355618  
2002-11-29 09:05:50 51°13.366 2°51.178 16.194764 0.069133 0.355618  
2002-11-29 09:05:56 51°13.356 2°51.148 16.194764 0.069133 0.355618  
2002-11-29 09:06:00 51°13.349 2°51.128 16.195533 0.069133 0.355623  
2002-11-29 09:06:06 51°13.339 2°51.098 16.195149 0.069133 0.355623  
2002-11-29 09:06:10 51°13.332 2°51.077 16.197885 0.069133 0.355628  
2002-11-29 09:06:16 51°13.322 2°51.047 16.199081 0.069133 0.355639  
2002-11-29 09:06:20 51°13.316 2°51.027 16.194251 0.069133 0.355633  
2002-11-29 09:06:25 51°13.307 2°51.002 16.194251 0.069133 0.355633  
2002-11-29 09:06:30 51°13.299 2°50.977 16.199466 0.069133 0.355639  
2002-11-29 09:06:35 51°13.29 2°50.952 16.202116 0.069133 0.355644  
2002-11-29 09:06:40 51°13.282 2°50.927 16.202715 0.069133 0.355654  
2002-11-29 09:06:46 51°13.272 2°50.896 16.197372 0.069133 0.355649  
2002-11-29 09:06:50 51°13.265 2°50.877 16.198568 0.069133 0.355649  
2002-11-29 09:06:56 51°13.255 2°50.846 16.198568 0.069133 0.355649  
2002-11-29 09:07:00 51°13.248 2°50.826 16.202202 0.069133 0.355654  
2002-11-29 09:07:04 51°13.242 2°50.806 16.202715 0.069133 0.355654  
2002-11-29 09:07:10 51°13.231 2°50.776 16.204424 0.069133 0.35566  
2002-11-29 09:07:15 51°13.223 2°50.751 16.205621 0.069133 0.35567  
2002-11-29 09:07:20 51°13.215 2°50.727 16.204211 0.069133 0.35567  
2002-11-29 09:07:26 51°13.204 2°50.697 16.204211 0.069133 0.35567  
2002-11-29 09:07:30 51°13.198 2°50.677 16.20451 0.069133 0.35567  
2002-11-29 09:07:35 51°13.189 2°50.652 16.206647 0.069133 0.355676  
2002-11-29 09:07:40 51°13.18 2°50.627 16.203698 0.069133 0.355676  
2002-11-29 09:07:46 51°13.17 2°50.597 16.208185 0.069133 0.355681  
2002-11-29 09:07:50 51°13.164 2°50.576 16.208485 0.069133 0.355681  
2002-11-29 09:07:56 51°13.154 2°50.546 16.208485 0.069133 0.355681  
2002-11-29 09:08:00 51°13.147 2°50.526 16.199765 0.069133 0.355681  
2002-11-29 09:08:06 51°13.137 2°50.496 16.209254 0.069133 0.355691  
2002-11-29 09:08:10 51°13.13 2°50.476 16.204253 0.069133 0.355691  
2002-11-29 09:08:16 51°13.12 2°50.446 16.207844 0.069133 0.355702  
2002-11-29 09:08:20 51°13.113 2°50.426 16.206134 0.069133 0.355697  
2002-11-29 09:08:26 51°13.103 2°50.396 16.206134 0.069133 0.355697  
2002-11-29 09:08:31 51°13.095 2°50.371 16.194251 0.069133 0.355702  
2002-11-29 09:08:36 51°13.087 2°50.345 16.208143 0.069133 0.355707  
2002-11-29 09:08:40 51°13.08 2°50.325 16.206048 0.069133 0.355707  
2002-11-29 09:08:44 51°13.074 2°50.306 16.208955 0.069133 0.355718  
2002-11-29 09:08:50 51°13.064 2°50.275 16.210493 0.069133 0.355718  
2002-11-29 09:08:56 51°13.053 2°50.245 16.210493 0.069133 0.355718  
2002-11-29 09:09:00 51°13.047 2°50.225 16.202031 0.069133 0.355718  
2002-11-29 09:09:06 51°13.036 2°50.195 16.212716 0.069133 0.355718  
2002-11-29 09:09:10 51°13.029 2°50.175 16.198568 0.069133 0.355718  
2002-11-29 09:09:16 51°13.02 2°50.145 16.210365 0.069133 0.355728  
2002-11-29 09:09:20 51°13.013 2°50.125 16.212374 0.069133 0.355728  
2002-11-29 09:09:26 51°13.002 2°50.095 16.212374 0.069133 0.355728  
2002-11-29 09:09:30 51°12.996 2°50.075 16.213912 0.069133 0.355739  
2002-11-29 09:09:35 51°12.987 2°50.049 16.214126 0.069133 0.355739  
2002-11-29 09:09:40 51°12.979 2°50.024 16.21716 0.069133 0.355744  
2002-11-29 09:09:45 51°12.971 2°49.999 16.216006 0.069133 0.355739  
2002-11-29 09:09:49 51°12.964 2°49.979 16.217331 0.069133 0.355744  
2002-11-29 09:09:55 51°12.954 2°49.949 16.22028 0.069133 0.355749  
2002-11-29 09:10:00 51°12.945 2°49.924 16.22028 0.069133 0.355749  
2002-11-29 09:10:06 51°12.936 2°49.893 16.216049 0.069133 0.355744  
2002-11-29 09:10:11 51°12.927 2°49.868 16.215707 0.069133 0.355749  
2002-11-29 09:10:15 51°12.92 2°49.848 16.222245 0.069133 0.35576  
2002-11-29 09:10:20 51°12.912 2°49.823 16.217203 0.069133 0.355755  
2002-11-29 09:10:25 51°12.903 2°49.798 16.217203 0.069133 0.355755  
2002-11-29 09:10:30 51°12.895 2°49.773 16.215194 0.069133 0.35576  
2002-11-29 09:10:36 51°12.885 2°49.743 16.222074 0.069133 0.35576  
2002-11-29 09:10:40 51°12.878 2°49.723 16.22169 0.069133 0.35577  
2002-11-29 09:10:46 51°12.868 2°49.693 16.223484 0.069133 0.35577  
2002-11-29 09:10:50 51°12.861 2°49.673 16.222587 0.069029 0.355224  
2002-11-29 09:10:55 51°12.853 2°49.647 16.222587 0.069029 0.355224  
2002-11-29 09:11:00 51°12.845 2°49.622 16.223954 0.069133 0.355776  
2002-11-29 09:11:06 51°12.835 2°49.592 16.227928 0.069133 0.355781  
2002-11-29 09:11:11 51°12.826 2°49.567 16.224809 0.069133 0.355781  
2002-11-29 09:11:16 51°12.818 2°49.542 16.228398 0.069133 0.355781  
2002-11-29 09:11:20 51°12.811 2°49.522 16.230064 0.069133 0.355792  
2002-11-29 09:11:24 51°12.804 2°49.502 16.230064 0.069133 0.355792  
2002-11-29 09:11:30 51°12.794 2°49.472 16.230449 0.069133 0.355797  
2002-11-29 09:11:36 51°12.784 2°49.442 16.232756 0.069133 0.355792  
2002-11-29 09:11:40 51°12.777 2°49.422 16.23109 0.069133 0.355797  
2002-11-29 09:11:45 51°12.768 2°49.397 16.232457 0.069133 0.355802  
2002-11-29 09:11:51 51°12.759 2°49.367 16.234807 0.069133 0.355802  
2002-11-29 09:11:56 51°12.75 2°49.342 16.234807 0.069133 0.355802  
2002-11-29 09:12:00 51°12.743 2°49.322 16.236601 0.069133 0.355807  
2002-11-29 09:12:06 51°12.733 2°49.292 16.237626 0.069029 0.355256  
2002-11-29 09:12:10 51°12.726 2°49.272 16.23549 0.069133 0.355813  
2002-11-29 09:12:15 51°12.717 2°49.246 16.237199 0.069133 0.355818  
2002-11-29 09:12:20 51°12.709 2°49.221 16.238908 0.069029 0.355267  
2002-11-29 09:12:25 51°12.701 2°49.196 16.238908 0.069029 0.355267  
2002-11-29 09:12:30 51°12.692 2°49.171 16.24083 0.069029 0.355267  
2002-11-29 09:12:36 51°12.682 2°49.141 16.240745 0.069133 0.355818  
2002-11-29 09:12:40 51°12.675 2°49.121 16.23015 0.069133 0.355823  
2002-11-29 09:12:46 51°12.665 2°49.091 16.239848 0.069029 0.355277  
2002-11-29 09:12:50 51°12.658 2°49.07 16.236302 0.069029 0.355282  
2002-11-29 09:12:55 51°12.65 2°49.045 16.236302 0.069029 0.355282  
2002-11-29 09:13:00 51°12.642 2°49.02 16.240403 0.069133 0.355828  
2002-11-29 09:13:06 51°12.631 2°48.99 16.243351 0.069029 0.355288  
2002-11-29 09:13:10 51°12.625 2°48.97 16.238694 0.069029 0.355288  
2002-11-29 09:13:16 51°12.615 2°48.94 16.240745 0.069133 0.355844  
2002-11-29 09:13:20 51°12.608 2°48.92 16.243052 0.069029 0.355293  
2002-11-29 09:13:26 51°12.598 2°48.889 16.243052 0.069029 0.355293  
2002-11-29 09:13:30 51°12.591 2°48.869 16.24664 0.069029 0.355293  
2002-11-29 09:13:35 51°12.582 2°48.844 16.24664 0.069029 0.355298  
2002-11-29 09:13:40 51°12.574 2°48.819 16.24869 0.069133 0.35585  
2002-11-29 09:13:46 51°12.564 2°48.789 16.246725 0.069029 0.355303  
2002-11-29 09:13:50 51°12.557 2°48.768 16.244675 0.069029 0.355309  
2002-11-29 09:13:55 51°12.549 2°48.743 16.244675 0.069029 0.355309  
2002-11-29 09:14:00 51°12.54 2°48.718 16.247964 0.069029 0.355309  
2002-11-29 09:14:04 51°12.533 2°48.698 16.246982 0.069029 0.355309  
2002-11-29 09:14:10 51°12.523 2°48.668 16.251082 0.069029 0.355314  
2002-11-29 09:14:16 51°12.513 2°48.637 16.253389 0.069029 0.355319  
2002-11-29 09:14:20 51°12.506 2°48.617 16.321393 0.069029 0.355319  
2002-11-29 09:14:24 51°12.499 2°48.597 15.845695 0.069029 0.355319  
2002-11-29 09:14:30 51°12.489 2°48.566 15.845695 0.069029 0.355319  
2002-11-29 09:14:36 51°12.479 2°48.536 15.887102 0.069029 0.355325  
2002-11-29 09:14:40 51°12.472 2°48.516 15.912433 0.069029 0.355325  
2002-11-29 09:14:44 51°12.466 2°48.496 15.937625 0.069029 0.35533  
2002-11-29 09:14:50 51°12.456 2°48.466 15.948523 0.069029 0.35533  
2002-11-29 09:14:55 51°12.447 2°48.441 15.948523 0.069029 0.35533  
2002-11-29 09:15:00 51°12.438 2°48.416 15.963579 0.069029 0.355335  
2002-11-29 09:15:05 51°12.43 2°48.391 15.98275 0.069029 0.35534  
2002-11-29 09:15:11 51°12.42 2°48.361 15.976746 0.069029 0.35534  
2002-11-29 09:15:16 51°12.411 2°48.336 15.981378 0.069029 0.35534  
2002-11-29 09:15:20 51°12.405 2°48.316 15.991668 0.069029 0.35534  
2002-11-29 09:15:26 51°12.394 2°48.285 15.991668 0.069029 0.35534  
2002-11-29 09:15:30 51°12.387 2°48.266 15.996041 0.069029 0.355346  
2002-11-29 09:15:35 51°12.379 2°48.241 16.003501 0.069029 0.355351  
2002-11-29 09:15:40 51°12.371 2°48.216 16.001143 0.069029 0.355346  
2002-11-29 09:15:44 51°12.364 2°48.195 16.00513 0.069029 0.355351  
2002-11-29 09:15:51 51°12.352 2°48.159 16.013059 0.069029 0.355351  
2002-11-29 09:15:56 51°12.344 2°48.134 16.013059 0.069029 0.355351  
2002-11-29 09:16:00 51°12.338 2°48.114 16.018288 0.069029 0.355356  
2002-11-29 09:16:06 51°12.328 2°48.084 16.023902 0.069029 0.355367  
2002-11-29 09:16:11 51°12.319 2°48.058 16.026088 0.069029 0.355361  
2002-11-29 09:16:15 51°12.312 2°48.038 16.026859 0.069029 0.355367  
2002-11-29 09:16:20 51°12.304 2°48.013 16.033715 0.069029 0.355372  
2002-11-29 09:16:26 51°12.294 2°47.983 16.033715 0.069029 0.355372  
2002-11-29 09:16:30 51°12.287 2°47.963 16.035515 0.069029 0.355372  
2002-11-29 09:16:35 51°12.279 2°47.937 16.034144 0.069029 0.355372  
2002-11-29 09:16:40 51°12.27 2°47.912 16.04237 0.069029 0.355377  
2002-11-29 09:16:44 51°12.263 2°47.892 16.045027 0.069029 0.355383  
2002-11-29 09:16:50 51°12.253 2°47.862 16.047169 0.069029 0.355377  
2002-11-29 09:16:56 51°12.243 2°47.831 16.049182 0.069029 0.355383  
2002-11-29 09:17:00 51°12.235 2°47.811 16.049182 0.069029 0.355383  
2002-11-29 09:17:04 51°12.228 2°47.791 16.04674 0.069029 0.355383  
2002-11-29 09:17:10 51°12.218 2°47.76 16.055479 0.069029 0.355393  
2002-11-29 09:17:16 51°12.208 2°47.73 16.057107 0.069029 0.355393  
2002-11-29 09:17:20 51°12.201 2°47.71 16.058606 0.069029 0.355393  
2002-11-29 09:17:26 51°12.191 2°47.679 16.058606 0.069029 0.355393  
2002-11-29 09:17:31 51°12.182 2°47.654 16.062075 0.069029 0.355404  
2002-11-29 09:17:35 51°12.175 2°47.634 16.06336 0.069029 0.355398  
2002-11-29 09:17:40 51°12.166 2°47.608 16.058606 0.069029 0.355398  
2002-11-29 09:17:44 51°12.159 2°47.588 16.067514 0.069029 0.355404  
2002-11-29 09:17:50 51°12.149 2°47.558 16.062889 0.069029 0.355398  
2002-11-29 09:17:56 51°12.139 2°47.528 16.062889 0.069029 0.355398  
2002-11-29 09:18:00 51°12.132 2°47.507 16.073938 0.069029 0.355409  
2002-11-29 09:18:06 51°12.122 2°47.476 16.073339 0.069029 0.355414  
2002-11-29 09:18:10 51°12.115 2°47.456 16.07685 0.069029 0.355409  
2002-11-29 09:18:16 51°12.105 2°47.425 16.080105 0.069029 0.355414  
2002-11-29 09:18:20 51°12.098 2°47.405 16.083444 0.069029 0.355419  
2002-11-29 09:18:26 51°12.087 2°47.375 16.083444 0.069029 0.355419  
2002-11-29 09:18:31 51°12.079 2°47.349 16.086484 0.069029 0.355419  
2002-11-29 09:18:36 51°12.07 2°47.324 16.087812 0.069029 0.355425  
2002-11-29 09:18:40 51°12.063 2°47.304 16.0855 0.069029 0.355425  
2002-11-29 09:18:44 51°12.056 2°47.283 16.091237 0.069029 0.35543  
2002-11-29 09:18:51 51°12.044 2°47.248 16.095389 0.069029 0.35543  
2002-11-29 09:18:56 51°12.035 2°47.222 16.095389 0.069029 0.35543  
2002-11-29 09:19:00 51°12.028 2°47.202 16.092093 0.069029 0.355435  
2002-11-29 09:19:04 51°12.022 2°47.181 16.087383 0.069029 0.35543  
2002-11-29 09:19:11 51°12.011 2°47.145 16.095689 0.069029 0.355435  
2002-11-29 09:19:16 51°12.003 2°47.119 16.093506 0.069029 0.355441  
2002-11-29 09:19:20 51°11.997 2°47.098 16.102067 0.069029 0.355441  
2002-11-29 09:19:26 51°11.989 2°47.066 16.101982 0.069029 0.355441  
2002-11-29 09:19:30 51°11.983 2°47.045 16.101982 0.069029 0.355441  
2002-11-29 09:19:36 51°11.975 2°47.013 16.102196 0.069029 0.355446  
2002-11-29 09:19:40 51°11.969 2°46.991 16.111013 0.069029 0.355451  
2002-11-29 09:19:44 51°11.964 2°46.97 16.111955 0.069029 0.355456  
2002-11-29 09:19:51 51°11.954 2°46.932 16.115593 0.069029 0.355456  
2002-11-29 09:19:56 51°11.947 2°46.906 16.115593 0.069029 0.355456  
2002-11-29 09:20:00 51°11.941 2°46.884 16.120086 0.069029 0.355456  
2002-11-29 09:20:06 51°11.933 2°46.853 16.12244 0.069029 0.355467  
2002-11-29 09:20:11 51°11.925 2°46.826 16.123253 0.069029 0.355462  
2002-11-29 09:20:16 51°11.918 2°46.8 16.118717 0.069029 0.355467  
2002-11-29 09:20:20 51°11.913 2°46.779 16.129329 0.069029 0.355467  
2002-11-29 09:20:26 51°11.904 2°46.746 16.129329 0.069029 0.355467  
2002-11-29 09:20:31 51°11.897 2°46.719 16.119273 0.069029 0.355467  
2002-11-29 09:20:36 51°11.89 2°46.693 16.133822 0.069029 0.355472  
2002-11-29 09:20:40 51°11.885 2°46.671 16.135833 0.069029 0.355483  
2002-11-29 09:20:46 51°11.876 2°46.639 16.138015 0.069029 0.355483  
2002-11-29 09:20:50 51°11.871 2°46.618 16.140966 0.069029 0.355488  
2002-11-29 09:20:56 51°11.862 2°46.586 16.140966 0.069029 0.355488  
2002-11-29 09:21:00 51°11.856 2°46.565 16.143704 0.069029 0.355488  
2002-11-29 09:21:04 51°11.851 2°46.544 16.142507 0.069029 0.355488  
2002-11-29 09:21:11 51°11.84 2°46.507 16.148025 0.069029 0.355499  
2002-11-29 09:21:15 51°11.835 2°46.486 16.149736 0.069029 0.355493  
2002-11-29 09:21:20 51°11.827 2°46.46 16.152431 0.069029 0.355493  
2002-11-29 09:21:26 51°11.819 2°46.428 16.152431 0.069029 0.355493  
2002-11-29 09:21:31 51°11.812 2°46.401 16.154698 0.069029 0.355499  
2002-11-29 09:21:36 51°11.805 2°46.374 16.154612 0.069029 0.355493  
2002-11-29 09:21:40 51°11.8 2°46.353 16.155895 0.069029 0.355504  
2002-11-29 09:21:46 51°11.791 2°46.321 16.160942 0.069029 0.355504  
2002-11-29 09:21:51 51°11.784 2°46.295 16.158633 0.069029 0.355499  
2002-11-29 09:21:55 51°11.779 2°46.273 16.164064 0.069029 0.355509  
2002-11-29 09:22:00 51°11.772 2°46.247 16.164064 0.069029 0.355509  
2002-11-29 09:22:06 51°11.763 2°46.215 16.131083 0.069237 0.355937  
2002-11-29 09:22:10 51°11.757 2°46.194 16.180613 0.035553 0.178742  
2002-11-29 09:22:16 51°11.749 2°46.162 16.729748 0.001154 0.014148  
2002-11-29 09:22:20 51°11.743 2°46.14 17.538788 0.001154 0.014138  
2002-11-29 09:22:24 51°11.737 2°46.119 17.538788 0.001154 0.014138  
2002-11-29 09:22:31 51°11.726 2°46.082 18.353169 0.001154 0.014127  
2002-11-29 09:22:36 51°11.719 2°46.056 19.18031 0.00105 0.013737  
2002-11-29 09:22:40 51°11.713 2°46.035 20.041671 0.00105 0.013729  
2002-11-29 09:22:44 51°11.707 2°46.014 20.680529 0.00105 0.013722  
2002-11-29 09:22:50 51°11.699 2°45.982 21.28232 0.00105 0.013716  
2002-11-29 09:22:56 51°11.69 2°45.95 21.28232 0.00105 0.013716  
2002-11-29 09:23:00 51°11.685 2°45.928 21.638272 0.000946 0.013337  
2002-11-29 09:23:06 51°11.676 2°45.897 21.524703 0.000946 0.013332  
2002-11-29 09:23:10 51°11.671 2°45.875 21.464324 0.000842 0.012962  
2002-11-29 09:23:15 51°11.663 2°45.849 21.367149 0.000842 0.012958  
2002-11-29 09:23:20 51°11.656 2°45.822 21.404011 0.000842 0.012955  
2002-11-29 09:23:24 51°11.65 2°45.801 21.404011 0.000842 0.012955  
2002-11-29 09:23:31 51°11.64 2°45.763 21.308383 0.000842 0.012952  
2002-11-29 09:23:35 51°11.635 2°45.742 21.308542 0.000842 0.012949  
2002-11-29 09:23:40 51°11.628 2°45.715 21.192018 0.000842 0.012948  
2002-11-29 09:23:46 51°11.619 2°45.683 21.098135 0.000842 0.012946  
2002-11-29 09:23:50 51°11.614 2°45.661 21.04417 0.000738 0.012588  
2002-11-29 09:23:55 51°11.607 2°45.634 21.04417 0.000738 0.012588  
2002-11-29 09:24:00 51°11.6 2°45.608 21.051067 0.000738 0.012587  
2002-11-29 09:24:06 51°11.591 2°45.576 21.029894 0.000738 0.012586  
2002-11-29 09:24:10 51°11.585 2°45.555 20.97448 0.000738 0.012585  
2002-11-29 09:24:15 51°11.578 2°45.528 20.949212 0.000738 0.012583  
2002-11-29 09:24:20 51°11.571 2°45.501 20.925373 0.000738 0.012583  
2002-11-29 09:24:26 51°11.562 2°45.47 20.945659 0.000738 0.012582  
2002-11-29 09:24:30 51°11.557 2°45.448 20.945659 0.000738 0.012582  
2002-11-29 09:24:35 51°11.549 2°45.421 20.874554 0.000738 0.012582  
2002-11-29 09:24:40 51°11.542 2°45.395 20.842973 0.000738 0.012581  
2002-11-29 09:24:46 51°11.534 2°45.363 20.816618 0.000738 0.01258  
2002-11-29 09:24:50 51°11.528 2°45.342 20.808378 0.000738 0.01258  
2002-11-29 09:24:56 51°11.519 2°45.31 20.808378 0.000738 0.01258  
2002-11-29 09:25:00 51°11.513 2°45.289 20.803057 0.000738 0.012579  
2002-11-29 09:25:04 51°11.508 2°45.268 20.78253 0.000738 0.012578  
2002-11-29 09:25:11 51°11.498 2°45.231 20.759436 0.000738 0.012578  
2002-11-29 09:25:16 51°11.491 2°45.204 20.750148 0.000634 0.012233  
2002-11-29 09:25:20 51°11.485 2°45.183 20.732569 0.000634 0.012233  
2002-11-29 09:25:26 51°11.477 2°45.151 20.732569 0.000634 0.012233  
2002-11-29 09:25:30 51°11.471 2°45.13 20.728284 0.000634 0.012232  
2002-11-29 09:25:36 51°11.463 2°45.098 20.723117 0.000634 0.012232  
2002-11-29 09:25:40 51°11.457 2°45.077 20.703689 0.000634 0.012231  
2002-11-29 09:25:45 51°11.45 2°45.051 20.678164 0.000634 0.01223  
2002-11-29 09:25:50 51°11.442 2°45.024 20.66638 0.000634 0.01223  
2002-11-29 09:25:56 51°11.433 2°44.993 20.66638 0.000634 0.01223  
2002-11-29 09:26:00 51°11.427 2°44.972 20.666501 0.000634 0.012229  
2002-11-29 09:26:06 51°11.418 2°44.94 20.647017 0.000634 0.012228  
2002-11-29 09:26:10 51°11.412 2°44.919 20.622995 0.000634 0.012228  
2002-11-29 09:26:16 51°11.404 2°44.887 20.644491 0.000634 0.012227  
2002-11-29 09:26:20 51°11.398 2°44.866 20.611162 0.000634 0.012227  
2002-11-29 09:26:26 51°11.389 2°44.834 20.611162 0.000634 0.012227  
2002-11-29 09:26:30 51°11.384 2°44.813 20.646937 0.000634 0.012226  
2002-11-29 09:26:36 51°11.375 2°44.78 20.608314 0.000634 0.012226  
2002-11-29 09:26:40 51°11.37 2°44.759 20.595074 0.000634 0.012225  
2002-11-29 09:26:46 51°11.361 2°44.727 20.577577 0.000634 0.012225  
2002-11-29 09:26:50 51°11.355 2°44.706 20.566981 0.000634 0.012224  
2002-11-29 09:26:56 51°11.347 2°44.674 20.566981 0.000634 0.012224  
2002-11-29 09:26:59 51°11.343 2°44.658 20.550922 0.000634 0.012224  
2002-11-29 09:27:06 51°11.333 2°44.621 20.554335 0.000634 0.012223  
2002-11-29 09:27:11 51°11.326 2°44.594 20.543856 0.00053 0.011894  
2002-11-29 09:27:15 51°11.32 2°44.573 20.539599 0.00053 0.011893  
2002-11-29 09:27:20 51°11.313 2°44.546 20.529841 0.00053 0.011893  
2002-11-29 09:27:26 51°11.304 2°44.514 20.529841 0.00053 0.011893  
2002-11-29 09:27:31 51°11.297 2°44.487 20.529841 0.00053 0.011892  
2002-11-29 09:27:36 51°11.29 2°44.461 20.506543 0.00053 0.011891  
2002-11-29 09:27:40 51°11.283 2°44.439 20.499431 0.00053 0.011891  
2002-11-29 09:27:44 51°11.278 2°44.418 20.497583 0.00053 0.01189  
2002-11-29 09:27:50 51°11.269 2°44.385 20.480384 0.00053 0.01189  
2002-11-29 09:27:55 51°11.262 2°44.359 20.480384 0.00053 0.01189  
2002-11-29 09:28:00 51°11.255 2°44.332 20.477409 0.00053 0.011889  
2002-11-29 09:28:04 51°11.249 2°44.31 20.495011 0.00053 0.011888  
2002-11-29 09:28:10 51°11.241 2°44.278 20.46519 0.00053 0.011888  
2002-11-29 09:28:16 51°11.232 2°44.246 20.452486 0.00053 0.011887  
2002-11-29 09:28:20 51°11.226 2°44.224 20.44754 0.00053 0.011887  
2002-11-29 09:28:25 51°11.219 2°44.198 20.44754 0.00053 0.011887  
2002-11-29 09:28:30 51°11.212 2°44.171 20.432702 0.00053 0.011886  
2002-11-29 09:28:35 51°11.205 2°44.144 20.427996 0.00053 0.011886  
2002-11-29 09:28:40 51°11.198 2°44.117 20.426226 0.00053 0.011885  
2002-11-29 09:28:46 51°11.189 2°44.085 20.408044 0.00053 0.011884  
2002-11-29 09:28:50 51°11.184 2°44.063 20.403176 0.00053 0.011884  
2002-11-29 09:28:55 51°11.176 2°44.037 20.403176 0.00053 0.011884  
2002-11-29 09:29:00 51°11.169 2°44.01 20.393036 0.00053 0.011883  
2002-11-29 09:29:06 51°11.16 2°43.978 20.391789 0.00053 0.011883  
2002-11-29 09:29:10 51°11.154 2°43.956 20.387121 0.00053 0.011882  
2002-11-29 09:29:16 51°11.146 2°43.924 20.378267 0.00053 0.011881  
2002-11-29 09:29:20 51°11.14 2°43.903 20.372591 0.00053 0.011881  
2002-11-29 09:29:26 51°11.132 2°43.87 20.372591 0.00053 0.011881  
2002-11-29 09:29:30 51°11.126 2°43.849 20.355563 0.00053 0.01188  
2002-11-29 09:29:35 51°11.119 2°43.822 20.355361 0.00053 0.01188  
2002-11-29 09:29:40 51°11.112 2°43.795 20.345094 0.00053 0.011879  
2002-11-29 09:29:46 51°11.104 2°43.763 20.332006 0.00053 0.011879  
2002-11-29 09:29:50 51°11.098 2°43.741 20.325481 0.00053 0.011878  
2002-11-29 09:29:56 51°11.09 2°43.709 20.325481 0.00053 0.011878  
2002-11-29 09:30:00 51°11.085 2°43.687 20.323185 0.00053 0.011878  
2002-11-29 09:30:06 51°11.076 2°43.655 20.320688 0.00053 0.011877  
2002-11-29 09:30:10 51°11.071 2°43.633 20.310214 0.00053 0.011876  
2002-11-29 09:30:15 51°11.064 2°43.606 20.307474 0.00053 0.011876  
2002-11-29 09:30:20 51°11.057 2°43.579 20.310939 0.00053 0.011875  
2002-11-29 09:30:24 51°11.051 2°43.558 20.310939 0.00053 0.011875  
2002-11-29 09:30:30 51°11.043 2°43.525 20.289342 0.00053 0.011874  
2002-11-29 09:30:36 51°11.035 2°43.493 20.294621 0.00053 0.011873  
2002-11-29 09:30:40 51°11.03 2°43.471 20.283821 0.00053 0.011873  
2002-11-29 09:30:46 51°11.022 2°43.438 20.267658 0.00053 0.011872  
2002-11-29 09:30:50 51°11.017 2°43.417 20.25641 0.00053 0.011872  
2002-11-29 09:30:55 51°11.01 2°43.389 20.25641 0.00053 0.011872  
2002-11-29 09:31:00 51°11.004 2°43.362 20.267013 0.00053 0.011871  
2002-11-29 09:31:06 51°10.996 2°43.329 20.241652 0.00053 0.011871  
2002-11-29 09:31:11 51°10.989 2°43.302 20.241531 0.00053 0.011871  
2002-11-29 09:31:16 51°10.982 2°43.275 20.230117 0.00053 0.01187  
2002-11-29 09:31:20 51°10.977 2°43.253 20.240684 0.00053 0.011869  
2002-11-29 09:31:26 51°10.969 2°43.22 20.227617 0.00053 0.011869  
2002-11-29 09:31:30 51°10.963 2°43.198 20.227617 0.00053 0.011869  
2002-11-29 09:31:35 51°10.957 2°43.171 20.215031 0.00053 0.011868  
2002-11-29 09:31:40 51°10.95 2°43.144 20.200184 0.00053 0.011868  
2002-11-29 09:31:46 51°10.942 2°43.111 20.209787 0.00053 0.011867  
2002-11-29 09:31:51 51°10.936 2°43.084 20.1974 0.000426 0.011557  
2002-11-29 09:31:56 51°10.929 2°43.056 20.189773 0.000426 0.011557  
2002-11-29 09:32:00 51°10.924 2°43.034 20.189773 0.000426 0.011557  
2002-11-29 09:32:06 51°10.916 2°43.002 20.182508 0.000426 0.011556  
2002-11-29 09:32:10 51°10.911 2°42.98 20.18606 0.00053 0.011864  
2002-11-29 09:32:15 51°10.904 2°42.953 20.180531 0.000426 0.011555  
2002-11-29 09:32:20 51°10.897 2°42.925 20.178149 0.00053 0.011862  
2002-11-29 09:32:25 51°10.891 2°42.898 20.178149 0.00053 0.011862  
2002-11-29 09:32:30 51°10.884 2°42.871 20.172377 0.000426 0.011553  
2002-11-29 09:32:35 51°10.878 2°42.843 20.182105 0.000426 0.011552  
2002-11-29 09:32:40 51°10.871 2°42.816 20.143267 0.000426 0.011551  
2002-11-29 09:32:46 51°10.863 2°42.783 20.156471 0.000426 0.01155  
2002-11-29 09:32:50 51°10.858 2°42.762 20.137452 0.000426 0.01155  
2002-11-29 09:32:56 51°10.85 2°42.729 20.137452 0.000426 0.01155  
2002-11-29 09:33:00 51°10.845 2°42.707 20.142904 0.000426 0.011549  
2002-11-29 09:33:06 51°10.837 2°42.675 20.131515 0.000426 0.011549  
2002-11-29 09:33:10 51°10.832 2°42.653 20.120447 0.000426 0.011548  
2002-11-29 09:33:15 51°10.825 2°42.626 20.10562 0.000426 0.011547  
2002-11-29 09:33:20 51°10.818 2°42.598 20.113014 0.000426 0.011546  
2002-11-29 09:33:26 51°10.81 2°42.566 20.097135 0.000426 0.011546  
2002-11-29 09:33:30 51°10.805 2°42.544 20.097135 0.000426 0.011546  
2002-11-29 09:33:36 51°10.797 2°42.511 20.090224 0.000426 0.011545  
2002-11-29 09:33:40 51°10.792 2°42.489 20.08493 0.000426 0.011545  
2002-11-29 09:33:45 51°10.785 2°42.462 20.072602 0.000426 0.011544  
2002-11-29 09:33:51 51°10.777 2°42.429 20.086587 0.000426 0.011543  
2002-11-29 09:33:56 51°10.77 2°42.402 20.074219 0.000426 0.011543  
2002-11-29 09:34:00 51°10.765 2°42.38 20.074219 0.000426 0.011543  
2002-11-29 09:34:04 51°10.76 2°42.358 20.087638 0.000426 0.011542  
2002-11-29 09:34:11 51°10.751 2°42.32 20.060231 0.000426 0.011541  
2002-11-29 09:34:15 51°10.746 2°42.298 20.046767 0.000426 0.011541  
2002-11-29 09:34:20 51°10.739 2°42.27 20.05453 0.000426 0.011541  
2002-11-29 09:34:26 51°10.731 2°42.238 20.05453 0.000426 0.011541  
2002-11-29 09:34:30 51°10.726 2°42.216 20.031641 0.000426 0.01154  
2002-11-29 09:34:36 51°10.718 2°42.183 20.03698 0.000426 0.011539  
2002-11-29 09:34:40 51°10.713 2°42.161 20.037667 0.000426 0.011538  
2002-11-29 09:34:46 51°10.704 2°42.128 20.029538 0.000426 0.011538  
2002-11-29 09:34:50 51°10.699 2°42.106 20.010848 0.000426 0.011537  
2002-11-29 09:34:55 51°10.692 2°42.079 20.010848 0.000426 0.011537  
2002-11-29 09:35:00 51°10.686 2°42.052 20.012588 0.000426 0.011536  
2002-11-29 09:35:06 51°10.678 2°42.019 20.013397 0.000426 0.011536  
2002-11-29 09:35:10 51°10.673 2°41.997 20.002311 0.000426 0.011535  
2002-11-29 09:35:16 51°10.666 2°41.964 19.998062 0.000426 0.011535  
2002-11-29 09:35:20 51°10.661 2°41.942 19.986042 0.000426 0.011534  
2002-11-29 09:35:24 51°10.656 2°41.92 19.986042 0.000426 0.011534  
2002-11-29 09:35:31 51°10.647 2°41.881 19.996969 0.000426 0.011533  
2002-11-29 09:35:36 51°10.64 2°41.854 19.970499 0.000426 0.011533  
2002-11-29 09:35:40 51°10.635 2°41.832 19.979081 0.000426 0.011532  
2002-11-29 09:35:46 51°10.627 2°41.8 19.969447 0.000426 0.011532  
2002-11-29 09:35:50 51°10.621 2°41.778 19.981793 0.000426 0.011531  
2002-11-29 09:35:56 51°10.613 2°41.746 19.981793 0.000426 0.011531  
2002-11-29 09:36:00 51°10.608 2°41.725 19.961835 0.000426 0.011531  
2002-11-29 09:36:06 51°10.6 2°41.692 19.951551 0.000426 0.01153  
2002-11-29 09:36:10 51°10.595 2°41.671 19.94252 0.000426 0.011529  
2002-11-29 09:36:16 51°10.587 2°41.638 19.947339 0.000426 0.011529  
2002-11-29 09:36:20 51°10.581 2°41.617 19.940212 0.000426 0.011528  
2002-11-29 09:36:24 51°10.576 2°41.595 19.926319 0.000426 0.011527  
2002-11-29 09:36:30 51°10.568 2°41.563 19.926319 0.000426 0.011527  
2002-11-29 09:36:36 51°10.56 2°41.53 19.915462 0.000426 0.011527  
2002-11-29 09:36:40 51°10.555 2°41.509 19.90432 0.000426 0.011527  
2002-11-29 09:36:46 51°10.547 2°41.476 19.914328 0.000426 0.011526  
2002-11-29 09:36:50 51°10.542 2°41.455 19.910763 0.000426 0.011525  
2002-11-29 09:36:55 51°10.536 2°41.428 19.896175 0.000426 0.011524  
2002-11-29 09:37:00 51°10.53 2°41.401 19.896175 0.000426 0.011524  
2002-11-29 09:37:06 51°10.522 2°41.368 19.900187 0.000426 0.011524  
2002-11-29 09:37:10 51°10.517 2°41.346 19.891231 0.000426 0.011524  
2002-11-29 09:37:16 51°10.509 2°41.314 19.88045 0.000426 0.011523  
2002-11-29 09:37:20 51°10.504 2°41.292 19.886205 0.000426 0.011522  
2002-11-29 09:37:26 51°10.497 2°41.259 19.886205 0.000426 0.011522  
2002-11-29 09:37:31 51°10.491 2°41.231 19.876964 0.000426 0.011522  
2002-11-29 09:37:36 51°10.484 2°41.204 19.872261 0.000426 0.011522  
2002-11-29 09:37:40 51°10.479 2°41.182 19.862207 0.000426 0.011521  
2002-11-29 09:37:46 51°10.471 2°41.15 19.877572 0.000426 0.01152  
2002-11-29 09:37:50 51°10.466 2°41.128 19.848745 0.000426 0.01152  
2002-11-29 09:37:56 51°10.458 2°41.095 19.848745 0.000426 0.01152  
2002-11-29 09:38:00 51°10.453 2°41.073 19.842337 0.000426 0.011519  
2002-11-29 09:38:04 51°10.448 2°41.052 19.831508 0.000426 0.011519  
2002-11-29 09:38:10 51°10.44 2°41.019 19.830616 0.000426 0.011518  
2002-11-29 09:38:15 51°10.434 2°40.992 19.872504 0.000426 0.011518  
2002-11-29 09:38:20 51°10.427 2°40.964 19.836943 0.000426 0.011517  
2002-11-29 09:38:26 51°10.419 2°40.932 19.836943 0.000426 0.011517  
2002-11-29 09:38:30 51°10.414 2°40.91 19.814023 0.000426 0.011517  
2002-11-29 09:38:35 51°10.408 2°40.882 19.819866 0.000426 0.011516  
2002-11-29 09:38:40 51°10.401 2°40.855 19.818567 0.000426 0.011515  
2002-11-29 09:38:46 51°10.393 2°40.823 19.807734 0.000426 0.011515  
2002-11-29 09:38:51 51°10.387 2°40.796 19.803961 0.000426 0.011514  
2002-11-29 09:38:56 51°10.38 2°40.768 19.803961 0.000426 0.011514  
2002-11-29 09:39:00 51°10.375 2°40.746 19.795277 0.000426 0.011514  
2002-11-29 09:39:06 51°10.368 2°40.713 19.805462 0.000426 0.011513  
2002-11-29 09:39:11 51°10.362 2°40.685 19.784602 0.000426 0.011512  
2002-11-29 09:39:16 51°10.355 2°40.658 19.78237 0.000426 0.011512  
2002-11-29 09:39:20 51°10.35 2°40.636 19.769217 0.000426 0.011511  
2002-11-29 09:39:26 51°10.343 2°40.603 19.769217 0.000426 0.011511  
2002-11-29 09:39:30 51°10.337 2°40.582 19.765563 0.000426 0.011511  
2002-11-29 09:39:35 51°10.331 2°40.554 19.772709 0.000426 0.01151  
2002-11-29 09:39:40 51°10.324 2°40.527 19.761016 0.000426 0.01151  
2002-11-29 09:39:46 51°10.317 2°40.494 19.756265 0.000426 0.01151  
2002-11-29 09:39:51 51°10.31 2°40.467 19.758052 0.000426 0.011509  
2002-11-29 09:39:56 51°10.304 2°40.44 19.758052 0.000426 0.011509  
2002-11-29 09:40:00 51°10.298 2°40.418 19.736691 0.000426 0.011509  
2002-11-29 09:40:06 51°10.291 2°40.385 19.74124 0.000426 0.011508  
2002-11-29 09:40:10 51°10.286 2°40.363 19.740874 0.000426 0.011507  
2002-11-29 09:40:16 51°10.278 2°40.33 19.726007 0.000426 0.011506  
2002-11-29 09:40:19 51°10.274 2°40.314 19.729257 0.000426 0.011506  
2002-11-29 09:40:26 51°10.265 2°40.275 19.728445 0.000426 0.011505  
2002-11-29 09:40:31 51°10.258 2°40.248 19.728445 0.000426 0.011505  
2002-11-29 09:40:35 51°10.253 2°40.226 19.724748 0.000426 0.011504  
2002-11-29 09:40:40 51°10.247 2°40.199 19.715241 0.000426 0.011504  
2002-11-29 09:40:46 51°10.239 2°40.166 19.711382 0.000426 0.011503  
2002-11-29 09:40:50 51°10.234 2°40.144 19.733522 0.000426 0.011503  
2002-11-29 09:40:55 51°10.228 2°40.117 19.690291 0.000426 0.011502  
2002-11-29 09:41:00 51°10.222 2°40.088 19.690291 0.000426 0.011502  
2002-11-29 09:41:06 51°10.214 2°40.055 19.694233 0.000426 0.011501  
2002-11-29 09:41:11 51°10.208 2°40.027 19.701832 0.000426 0.011501  
2002-11-29 09:41:15 51°10.203 2°40.005 19.683503 0.000426 0.0115  
2002-11-29 09:41:20 51°10.196 2°39.977 19.679031 0.000426 0.011499  
2002-11-29 09:41:26 51°10.188 2°39.944 19.679031 0.000426 0.011499  
2002-11-29 09:41:30 51°10.184 2°39.922 19.67086 0.000426 0.011499  
2002-11-29 09:41:36 51°10.176 2°39.889 19.686267 0.000426 0.011498  
2002-11-29 09:41:40 51°10.171 2°39.867 19.667892 0.000426 0.011498  
2002-11-29 09:41:45 51°10.165 2°39.839 19.663135 0.000426 0.011497  
2002-11-29 09:41:50 51°10.158 2°39.811 19.666388 0.000426 0.011496  
2002-11-29 09:41:55 51°10.152 2°39.784 19.666388 0.000426 0.011496  
2002-11-29 09:42:00 51°10.145 2°39.757 19.666591 0.000426 0.011495  
2002-11-29 09:42:04 51°10.139 2°39.735 19.687039 0.000426 0.011495  
2002-11-29 09:42:11 51°10.13 2°39.696 19.640484 0.000426 0.011494  
2002-11-29 09:42:16 51°10.124 2°39.669 19.652685 0.000426 0.011493  
2002-11-29 09:42:19 51°10.121 2°39.653 19.63003 0.000426 0.011493  
2002-11-29 09:42:26 51°10.112 2°39.615 19.63003 0.000426 0.011493  
2002-11-29 09:42:30 51°10.107 2°39.593 19.626573 0.000426 0.011493  
2002-11-29 09:42:35 51°10.1 2°39.565 19.629868 0.000426 0.011492  
2002-11-29 09:42:40 51°10.093 2°39.537 19.631251 0.000426 0.011491  
2002-11-29 09:42:46 51°10.085 2°39.504 19.644592 0.000426 0.01149  
2002-11-29 09:42:50 51°10.08 2°39.482 19.627834 0.000426 0.01149  
2002-11-29 09:42:55 51°10.073 2°39.454 19.635278 0.000426 0.011489  
2002-11-29 09:43:00 51°10.066 2°39.427 19.635278 0.000426 0.011489  
2002-11-29 09:43:06 51°10.059 2°39.394 19.607613 0.000322 0.011206  
2002-11-29 09:43:10 51°10.054 2°39.372 19.620063 0.000426 0.011488  
2002-11-29 09:43:15 51°10.047 2°39.345 19.576762 0.000322 0.011205  
2002-11-29 09:43:20 51°10.039 2°39.318 19.552087 0.000426 0.011486  
2002-11-29 09:43:26 51°10.028 2°39.288 19.597683 0.000426 0.011486  
2002-11-29 09:43:30 51°10.021 2°39.268 19.597683 0.000426 0.011486  
2002-11-29 09:43:36 51°10.009 2°39.238 19.569148 0.000426 0.011486  
2002-11-29 09:43:40 51°10.002 2°39.218 19.580507 0.000426 0.011486  
2002-11-29 09:43:46 51°9.99 2°39.188 19.594875 0.000426 0.011484  
2002-11-29 09:43:50 51°9.983 2°39.168 19.599637 0.000426 0.011485  
2002-11-29 09:43:56 51°9.971 2°39.138 19.599637 0.000426 0.011485  
2002-11-29 09:44:00 51°9.964 2°39.117 19.597154 0.000322 0.011202  
2002-11-29 09:44:06 51°9.954 2°39.086 19.570329 0.000426 0.011484  
2002-11-29 09:44:10 51°9.946 2°39.065 19.608833 0.000426 0.011484  
2002-11-29 09:44:16 51°9.936 2°39.034 19.5917 0.000426 0.011483  
2002-11-29 09:44:20 51°9.93 2°39.012 19.567276 0.000426 0.011482  
2002-11-29 09:44:26 51°9.921 2°38.98 19.567276 0.000426 0.011482  
2002-11-29 09:44:30 51°9.915 2°38.959 19.575296 0.000426 0.011481  
2002-11-29 09:44:36 51°9.906 2°38.927 19.558643 0.000426 0.01148  
2002-11-29 09:44:40 51°9.9 2°38.905 19.55844 0.000322 0.011197  
2002-11-29 09:44:44 51°9.894 2°38.883 19.566624 0.000426 0.011479  
2002-11-29 09:44:51 51°9.885 2°38.845 19.55677 0.000426 0.011478  
2002-11-29 09:44:55 51°9.879 2°38.823 19.55677 0.000426 0.011478  
2002-11-29 09:45:00 51°9.873 2°38.796 19.553757 0.000426 0.011477  
2002-11-29 09:45:06 51°9.864 2°38.763 19.546467 0.000426 0.011477  
2002-11-29 09:45:11 51°9.858 2°38.735 19.545652 0.000426 0.011476  
2002-11-29 09:45:15 51°9.852 2°38.713 19.573505 0.000426 0.011476  
2002-11-29 09:45:20 51°9.846 2°38.686 19.532333 0.000426 0.011475  
2002-11-29 09:45:24 51°9.84 2°38.664 19.533474 0.000322 0.011192  
2002-11-29 09:45:30 51°9.832 2°38.631 19.533474 0.000322 0.011192  
2002-11-29 09:45:36 51°9.824 2°38.598 19.519908 0.000322 0.011193  
2002-11-29 09:45:40 51°9.818 2°38.576 19.517178 0.000322 0.011193  
2002-11-29 09:45:46 51°9.81 2°38.544 19.529889 0.000322 0.011192  
2002-11-29 09:45:51 51°9.803 2°38.517 19.531437 0.000322 0.01119  
2002-11-29 09:45:56 51°9.796 2°38.489 19.531437 0.000322 0.01119  
2002-11-29 09:46:00 51°9.791 2°38.467 19.540887 0.000322 0.011189  
2002-11-29 09:46:04 51°9.785 2°38.445 19.514244 0.000426 0.011471  
2002-11-29 09:46:10 51°9.777 2°38.412 19.508336 0.000426 0.01147  
2002-11-29 09:46:16 51°9.769 2°38.38 19.491015 0.000322 0.011187  
2002-11-29 09:46:20 51°9.764 2°38.358 19.498025 0.000426 0.011469  
2002-11-29 09:46:26 51°9.756 2°38.325 19.497944 0.000322 0.011185  
2002-11-29 09:46:30 51°9.75 2°38.303 19.497944 0.000322 0.011185  
2002-11-29 09:46:35 51°9.744 2°38.276 19.491586 0.000322 0.011184  
2002-11-29 09:46:41 51°9.736 2°38.243 19.50691 0.000322 0.011182  
2002-11-29 09:46:46 51°9.729 2°38.216 19.475239 0.000322 0.011183  
2002-11-29 09:46:50 51°9.723 2°38.194 19.478297 0.000322 0.011183  
2002-11-29 09:46:55 51°9.717 2°38.166 19.472997 0.000322 0.011181  
2002-11-29 09:47:00 51°9.71 2°38.139 19.472997 0.000322 0.011181  
2002-11-29 09:47:06 51°9.702 2°38.106 19.463375 0.000322 0.01118  
2002-11-29 09:47:10 51°9.698 2°38.084 19.479561 0.000426 0.011462  
2002-11-29 09:47:16 51°9.69 2°38.051 19.478134 0.000322 0.011179  
2002-11-29 09:47:20 51°9.684 2°38.029 19.456932 0.000426 0.011462  
2002-11-29 09:47:24 51°9.679 2°38.007 19.463293 0.000322 0.011178  
2002-11-29 09:47:30 51°9.672 2°37.974 19.463293 0.000322 0.011178  
2002-11-29 09:47:35 51°9.666 2°37.946 19.464435 0.000322 0.011177  
2002-11-29 09:47:40 51°9.66 2°37.918 19.447144 0.000322 0.011175  
2002-11-29 09:47:46 51°9.653 2°37.885 19.45473 0.000426 0.01146  
2002-11-29 09:47:50 51°9.648 2°37.862 19.441271 0.000426 0.01146  
2002-11-29 09:47:55 51°9.642 2°37.835 19.440129 0.000322 0.011175  
2002-11-29 09:48:00 51°9.636 2°37.807 19.440129 0.000322 0.011175  
2002-11-29 09:48:06 51°9.628 2°37.774 19.469491 0.000322 0.011175  
2002-11-29 09:48:11 51°9.622 2°37.746 19.429033 0.000322 0.011173  
2002-11-29 09:48:16 51°9.616 2°37.719 19.431073 0.000322 0.011173  
2002-11-29 09:48:20 51°9.611 2°37.696 19.437029 0.000322 0.011172  
2002-11-29 09:48:26 51°9.604 2°37.663 19.434459 0.000322 0.011171  
2002-11-29 09:48:30 51°9.599 2°37.641 19.434459 0.000322 0.011171  
2002-11-29 09:48:36 51°9.591 2°37.608 19.432297 0.000322 0.011171  
2002-11-29 09:48:40 51°9.586 2°37.586 19.416997 0.000322 0.01117  
2002-11-29 09:48:46 51°9.579 2°37.553 19.424545 0.000322 0.011169  
2002-11-29 09:48:50 51°9.574 2°37.531 19.416385 0.000322 0.011169  
2002-11-29 09:48:56 51°9.567 2°37.497 19.416385 0.000322 0.011169  
2002-11-29 09:49:00 51°9.562 2°37.475 19.408592 0.000322 0.011168  
2002-11-29 09:49:06 51°9.554 2°37.442 19.407694 0.000322 0.011167  
2002-11-29 09:49:11 51°9.548 2°37.414 19.408143 0.000322 0.011167  
2002-11-29 09:49:16 51°9.542 2°37.386 19.395981 0.000322 0.011166  
2002-11-29 09:49:20 51°9.537 2°37.364 19.384919 0.000322 0.011166  
2002-11-29 09:49:25 51°9.531 2°37.337 19.384919 0.000322 0.011166  
2002-11-29 09:49:30 51°9.525 2°37.31 19.430012 0.000322 0.011165  
2002-11-29 09:49:36 51°9.518 2°37.277 19.389001 0.000322 0.011165  
2002-11-29 09:49:40 51°9.513 2°37.254 19.38447 0.000322 0.011165  
2002-11-29 09:49:46 51°9.505 2°37.221 19.385613 0.000322 0.011164  
2002-11-29 09:49:50 51°9.5 2°37.199 19.379326 0.000322 0.011164  
2002-11-29 09:49:56 51°9.494 2°37.166 19.379326 0.000322 0.011164  
2002-11-29 09:50:00 51°9.489 2°37.143 19.38896 0.000322 0.011163  
2002-11-29 09:50:04 51°9.484 2°37.121 19.373652 0.000322 0.011162  
2002-11-29 09:50:11 51°9.475 2°37.082 19.381 0.000322 0.011162  
2002-11-29 09:50:15 51°9.47 2°37.06 19.364832 0.000322 0.011162  
2002-11-29 09:50:20 51°9.464 2°37.033 19.382021 0.000322 0.011162  
2002-11-29 09:50:26 51°9.456 2°36.999 19.377898 0.000322 0.011161  
2002-11-29 09:50:31 51°9.45 2°36.972 19.377898 0.000322 0.011161  
2002-11-29 09:50:36 51°9.444 2°36.944 19.362464 0.000322 0.01116  
2002-11-29 09:50:40 51°9.44 2°36.921 19.363689 0.000322 0.01116  
2002-11-29 09:50:46 51°9.433 2°36.888 19.363526 0.000322 0.011159  
2002-11-29 09:50:51 51°9.427 2°36.861 19.349232 0.000322 0.011159  
2002-11-29 09:50:56 51°9.421 2°36.835 19.349232 0.000322 0.011159  
2002-11-29 09:51:00 51°9.417 2°36.815 19.398715 0.000322 0.011158  
2002-11-29 09:51:04 51°9.414 2°36.797 19.36769 0.000322 0.011156  
2002-11-29 09:51:11 51°9.407 2°36.768 19.351397 0.000322 0.011157  
2002-11-29 09:51:15 51°9.404 2°36.752 19.319983 0.000322 0.011157  
2002-11-29 09:51:20 51°9.4 2°36.734 19.322108 0.000322 0.011157  
2002-11-29 09:51:26 51°9.394 2°36.714 19.317123 0.000322 0.011156  
2002-11-29 09:51:31 51°9.389 2°36.699 19.317123 0.000322 0.011156  
2002-11-29 09:51:36 51°9.385 2°36.685 19.305558 0.000322 0.011155  
2002-11-29 09:51:40 51°9.381 2°36.675 19.278294 0.000322 0.011154  
2002-11-29 09:51:46 51°9.375 2°36.661 19.300204 0.000322 0.011154  
2002-11-29 09:51:51 51°9.371 2°36.649 19.291212 0.000322 0.011153  
2002-11-29 09:51:56 51°9.366 2°36.639 19.291212 0.000322 0.011153  
2002-11-29 09:52:00 51°9.363 2°36.631 19.289904 0.000322 0.011152  
2002-11-29 09:52:04 51°9.359 2°36.624 19.284386 0.000322 0.011152  
2002-11-29 09:52:11 51°9.353 2°36.612 19.284631 0.000322 0.011151  
2002-11-29 09:52:16 51°9.349 2°36.604 19.273143 0.000322 0.011151  
2002-11-29 09:52:20 51°9.346 2°36.599 19.272979 0.000322 0.011151  
2002-11-29 09:52:24 51°9.342 2°36.593 19.264679 0.000322 0.01115  
2002-11-29 09:52:30 51°9.338 2°36.585 19.264679 0.000322 0.01115  
2002-11-29 09:52:35 51°9.334 2°36.579 19.269708 0.000322 0.01115  
2002-11-29 09:52:40 51°9.33 2°36.574 19.257645 0.000322 0.01115  
2002-11-29 09:52:46 51°9.325 2°36.568 19.249915 0.000322 0.011149  
2002-11-29 09:52:51 51°9.322 2°36.564 19.275105 0.000322 0.011147  
2002-11-29 09:52:56 51°9.318 2°36.56 19.261489 0.000322 0.011147  
2002-11-29 09:53:00 51°9.315 2°36.557 19.261489 0.000322 0.011147  
2002-11-29 09:53:06 51°9.311 2°36.552 19.267909 0.000322 0.011148  
2002-11-29 09:53:10 51°9.308 2°36.549 19.2547 0.000322 0.011148  
2002-11-29 09:53:16 51°9.304 2°36.546 19.269136 0.000322 0.011146  
2002-11-29 09:53:20 51°9.302 2°36.543 19.247093 0.000322 0.011146  
2002-11-29 09:53:24 51°9.299 2°36.541 19.26382 0.000322 0.011146  
2002-11-29 09:53:30 51°9.296 2°36.538 19.26382 0.000322 0.011146  
2002-11-29 09:53:36 51°9.292 2°36.535 19.260589 0.000322 0.011145  
2002-11-29 09:53:40 51°9.29 2°36.534 19.265129 0.000322 0.011145  
2002-11-29 09:53:46 51°9.287 2°36.531 19.26611 0.000322 0.011146  
2002-11-29 09:53:50 51°9.285 2°36.529 19.24832 0.000322 0.011146  
2002-11-29 09:53:55 51°9.282 2°36.527 19.282955 0.000322 0.011145  
2002-11-29 09:54:00 51°9.28 2°36.526 19.282955 0.000322 0.011145  
2002-11-29 09:54:04 51°9.278 2°36.524 19.264597 0.000322 0.011145  
2002-11-29 09:54:10 51°9.275 2°36.522 19.248566 0.000322 0.011144  
2002-11-29 09:54:16 51°9.272 2°36.52 19.24697 0.000322 0.011144  
2002-11-29 09:54:20 51°9.27 2°36.519 19.24832 0.000322 0.011144  
2002-11-29 09:54:24 51°9.268 2°36.518 19.24832 0.000322 0.011144  
2002-11-29 09:54:30 51°9.266 2°36.517 19.232449 0.000322 0.011143  
2002-11-29 09:54:35 51°9.264 2°36.515 19.231467 0.000322 0.011142  
2002-11-29 09:54:40 51°9.262 2°36.514 19.250692 0.000322 0.011141  
2002-11-29 09:54:46 51°9.26 2°36.513 19.226926 0.000322 0.011142  
2002-11-29 09:54:50 51°9.259 2°36.512 19.257032 0.000322 0.011141  
2002-11-29 09:54:55 51°9.257 2°36.51 19.257032 0.000322 0.011141  
2002-11-29 09:55:00 51°9.255 2°36.509 19.243494 0.000322 0.01114  
2002-11-29 09:55:06 51°9.253 2°36.507 19.244189 0.000322 0.011139  
2002-11-29 09:55:10 51°9.251 2°36.506 19.232735 0.000322 0.011136  
2002-11-29 09:55:15 51°9.249 2°36.505 19.23249 0.000322 0.011134  
2002-11-29 09:55:20 51°9.247 2°36.504 19.226598 0.000322 0.011133  
2002-11-29 09:55:26 51°9.245 2°36.502 19.226598 0.000322 0.011133  
2002-11-29 09:55:31 51°9.244 2°36.501 19.225576 0.000322 0.011134  
2002-11-29 09:55:36 51°9.242 2°36.499 19.214446 0.000322 0.011133  
2002-11-29 09:55:40 51°9.241 2°36.498 19.2124 0.000322 0.011132  
2002-11-29 09:55:44 51°9.24 2°36.497 19.217924 0.000322 0.011131  
2002-11-29 09:55:50 51°9.238 2°36.495 19.21817 0.000322 0.011131  
2002-11-29 09:55:56 51°9.237 2°36.494 19.225698 0.000322 0.011129  
2002-11-29 09:56:00 51°9.235 2°36.492 19.225698 0.000322 0.011129  
2002-11-29 09:56:04 51°9.234 2°36.492 19.227458 0.000322 0.011129  
2002-11-29 09:56:10 51°9.232 2°36.49 19.224716 0.000322 0.011128  
2002-11-29 09:56:16 51°9.231 2°36.488 19.204952 0.000322 0.011127  
2002-11-29 09:56:20 51°9.23 2°36.486 19.194883 0.000322 0.011127  
2002-11-29 09:56:26 51°9.229 2°36.485 19.209576 0.000322 0.011128  
2002-11-29 09:56:31 51°9.228 2°36.483 19.209576 0.000322 0.011128  
2002-11-29 09:56:36 51°9.227 2°36.482 19.198157 0.000322 0.011126  
2002-11-29 09:56:40 51°9.226 2°36.48 19.197011 0.000322 0.011125  
2002-11-29 09:56:45 51°9.225 2°36.479 19.195865 0.000322 0.011126  
2002-11-29 09:56:50 51°9.224 2°36.477 19.201309 0.000322 0.011125  
2002-11-29 09:56:55 51°9.223 2°36.475 19.201309 0.000322 0.011125  
2002-11-29 09:57:00 51°9.222 2°36.473 19.198894 0.000322 0.011125  
2002-11-29 09:57:06 51°9.221 2°36.471 19.19476 0.000322 0.011123  
2002-11-29 09:57:11 51°9.221 2°36.469 19.200695 0.000322 0.011123  
2002-11-29 09:57:15 51°9.22 2°36.468 19.199263 0.000322 0.01112  
2002-11-29 09:57:20 51°9.219 2°36.466 19.192714 0.000322 0.011119  
2002-11-29 09:57:24 51°9.219 2°36.465 19.192714 0.000322 0.011119  
2002-11-29 09:57:30 51°9.218 2°36.462 19.204501 0.000322 0.01112  
2002-11-29 09:57:35 51°9.217 2°36.46 19.200409 0.000322 0.01112  
2002-11-29 09:57:40 51°9.216 2°36.458 19.184158 0.000322 0.011119  
2002-11-29 09:57:44 51°9.216 2°36.456 19.18907 0.000322 0.011119  
2002-11-29 09:57:51 51°9.216 2°36.454 19.189684 0.000322 0.011119  
2002-11-29 09:57:56 51°9.215 2°36.452 19.201391 0.000322 0.011118  
2002-11-29 09:58:00 51°9.215 2°36.45 19.201391 0.000322 0.011118  
2002-11-29 09:58:06 51°9.214 2°36.448 19.194596 0.000322 0.011118  
2002-11-29 09:58:10 51°9.214 2°36.447 19.186082 0.000322 0.011118  
2002-11-29 09:58:15 51°9.214 2°36.444 19.19738 0.000322 0.011117  
2002-11-29 09:58:20 51°9.213 2°36.443 19.458441 0.000322 0.011116  
2002-11-29 09:58:26 51°9.213 2°36.44 19.636498 0.000322 0.011116  
2002-11-29 09:58:31 51°9.212 2°36.438 19.636498 0.000322 0.011116  
2002-11-29 09:58:36 51°9.212 2°36.436 19.415733 0.000322 0.011116  
2002-11-29 09:58:40 51°9.212 2°36.434 19.584211 0.000322 0.011115  
2002-11-29 09:58:46 51°9.211 2°36.432 19.509029 0.000322 0.011114  
2002-11-29 09:58:50 51°9.211 2°36.43 19.350376 0.000322 0.011113  
2002-11-29 09:58:56 51°9.211 2°36.428 19.483189 0.000322 0.011112  
2002-11-29 09:59:00 51°9.21 2°36.426 19.483189 0.000322 0.011112  
2002-11-29 09:59:06 51°9.21 2°36.424 19.45057 0.000322 0.011111  
2002-11-29 09:59:10 51°9.209 2°36.422 19.579733 0.000322 0.011111  
2002-11-29 09:59:15 51°9.209 2°36.42 19.400879 0.000322 0.01111  
2002-11-29 09:59:20 51°9.209 2°36.418 19.423036 0.000322 0.011109  
2002-11-29 09:59:26 51°9.208 2°36.415 19.423036 0.000322 0.011109  
2002-11-29 09:59:31 51°9.208 2°36.413 19.553879 0.000322 0.011108  
2002-11-29 09:59:35 51°9.208 2°36.411 19.591497 0.000322 0.011107  
2002-11-29 09:59:40 51°9.207 2°36.409 19.485023 0.000322 0.011106  
2002-11-29 09:59:46 51°9.207 2°36.407 19.323538 0.000322 0.011105